Sun Universe — 3FOQ4 — position and weather

sailwx.info

Track history (hours):
 
Tides and Currents Weather Stations Pressure Air Temp Water Temp Dewpoint Dewpoint Depression Visibility Wind Speed Wind Dir Waves Ship Positions

Sun Universe

Last reported at 2018-Feb-23 22:00 UTC. Time now 2018-Feb-25 14:08 UTC.
Position N 24°44' E 123°45'.

Length 117 m; draft 9.3 m.

Type: Cargo ship. MMSI: 371647000.

Date/timePositionNaut miles runAvg speedWind from/ knotsBaromVisibWave heightAir tempDewpointWater temp
2018-Feb-23 22:00N 24°44' E 123°45'612.0
2018-Feb-23 21:30N 24°40' E 123°41'612.2
2018-Feb-23 21:00N 24°35' E 123°36'612.8
2018-Feb-23 20:30N 24°30' E 123°32'612.5
2018-Feb-23 20:00N 24°25' E 123°27'612.2
2018-Feb-23 19:30N 24°21' E 123°23'612.0
2018-Feb-23 19:00N 24°16' E 123°19'611.8
2018-Feb-23 18:30N 24°12' E 123°14'612.2
2018-Feb-23 18:00N 24°07' E 123°10'612.2
2018-Feb-23 17:30N 24°02' E 123°06'612.3
2018-Feb-23 17:00N 23°58' E 123°01'612.4
2018-Feb-23 16:30N 23°53' E 122°57'612.7
2018-Feb-23 16:00N 23°48' E 122°52'7111.7
2018-Feb-23 09:53N 22°54' E 122°01'910.9
2018-Feb-23 09:05N 22°47' E 121°55'110.6
2018-Feb-23 08:57N 22°46' E 121°54'510.4
2018-Feb-23 08:30N 22°43' E 121°51'510.2
2018-Feb-23 07:59N 22°39' E 121°47'5 9.9
2018-Feb-23 07:29N 22°36' E 121°43'5 9.9
2018-Feb-23 07:00N 22°32' E 121°40'5 9.9
2018-Feb-23 06:30N 22°27' E 121°37'510.7
2018-Feb-23 06:00N 22°24' E 121°33'1111.0
2018-Feb-23 05:01N 22°16' E 121°25'011.6
2018-Feb-23 04:59N 22°16' E 121°25'610.3
2018-Feb-23 04:26N 22°11' E 121°21'4 9.2
2018-Feb-23 03:57N 22°08' E 121°18'4 9.2
2018-Feb-23 03:30N 22°05' E 121°15'  
Track history (hours):
 
Tides and Currents Weather Stations Pressure Air Temp Water Temp Dewpoint Dewpoint Depression Visibility Wind Speed Wind Dir Waves Ship Positions

Sun Universe

Last reported at 2018-Feb-23 22:00 UTC. Time now 2018-Feb-25 14:08 UTC.
Position N 24°44' E 123°45'.

Length 117 m; draft 9.3 m.

Type: Cargo ship. MMSI: 371647000.

Date/timePositionNaut miles runAvg speedWind from/ knotsBaromVisibWave heightAir tempDewpointWater temp
2018-Feb-23 22:00N 24°44' E 123°45'612.0
2018-Feb-23 21:30N 24°40' E 123°41'612.2
2018-Feb-23 21:00N 24°35' E 123°36'612.8
2018-Feb-23 20:30N 24°30' E 123°32'612.5
2018-Feb-23 20:00N 24°25' E 123°27'612.2
2018-Feb-23 19:30N 24°21' E 123°23'612.0
2018-Feb-23 19:00N 24°16' E 123°19'611.8
2018-Feb-23 18:30N 24°12' E 123°14'612.2
2018-Feb-23 18:00N 24°07' E 123°10'612.2
2018-Feb-23 17:30N 24°02' E 123°06'612.3
2018-Feb-23 17:00N 23°58' E 123°01'612.4
2018-Feb-23 16:30N 23°53' E 122°57'612.7
2018-Feb-23 16:00N 23°48' E 122°52'7111.7
2018-Feb-23 09:53N 22°54' E 122°01'910.9
2018-Feb-23 09:05N 22°47' E 121°55'110.6
2018-Feb-23 08:57N 22°46' E 121°54'510.4
2018-Feb-23 08:30N 22°43' E 121°51'510.2
2018-Feb-23 07:59N 22°39' E 121°47'5 9.9
2018-Feb-23 07:29N 22°36' E 121°43'5 9.9
2018-Feb-23 07:00N 22°32' E 121°40'5 9.9
2018-Feb-23 06:30N 22°27' E 121°37'510.7
2018-Feb-23 06:00N 22°24' E 121°33'1111.0
2018-Feb-23 05:01N 22°16' E 121°25'011.6
2018-Feb-23 04:59N 22°16' E 121°25'610.3
2018-Feb-23 04:26N 22°11' E 121°21'4 9.2
2018-Feb-23 03:57N 22°08' E 121°18'4 9.2
2018-Feb-23 03:30N 22°05' E 121°15'  

Dump ship's entire track history